sensor_id;sensor_type;location;lat;lon;timestamp;pressure;altitude;pressure_sealevel;temperature;humidity
56689;BME280;42565;53.342;-1.534;2023-01-08T00:01:15;96449.56;;;5.04;92.69
56689;BME280;42565;53.342;-1.534;2023-01-08T00:03:42;96444.87;;;5.51;91.82
56689;BME280;42565;53.342;-1.534;2023-01-08T00:06:12;96451.92;;;4.78;93.21
56689;BME280;42565;53.342;-1.534;2023-01-08T00:08:39;96445.13;;;5.79;89.26
56689;BME280;42565;53.342;-1.534;2023-01-08T00:11:07;96447.47;;;5.11;90.98
56689;BME280;42565;53.342;-1.534;2023-01-08T00:13:35;96455.61;;;5.60;90.39
56689;BME280;42565;53.342;-1.534;2023-01-08T00:16:03;96453.94;;;5.09;92.79
56689;BME280;42565;53.342;-1.534;2023-01-08T00:18:31;96463.37;;;4.99;92.32
56689;BME280;42565;53.342;-1.534;2023-01-08T00:20:58;96461.64;;;5.69;91.41
56689;BME280;42565;53.342;-1.534;2023-01-08T00:23:25;96447.70;;;5.13;92.56
56689;BME280;42565;53.342;-1.534;2023-01-08T00:25:52;96447.11;;;5.50;90.81
56689;BME280;42565;53.342;-1.534;2023-01-08T00:28:19;96446.85;;;5.26;90.82
56689;BME280;42565;53.342;-1.534;2023-01-08T00:30:47;96448.70;;;5.15;91.01
56689;BME280;42565;53.342;-1.534;2023-01-08T00:33:14;96439.35;;;5.04;93.53
56689;BME280;42565;53.342;-1.534;2023-01-08T00:35:42;96444.60;;;5.21;92.68
56689;BME280;42565;53.342;-1.534;2023-01-08T00:38:10;96450.15;;;4.96;92.03
56689;BME280;42565;53.342;-1.534;2023-01-08T00:40:38;96451.14;;;5.68;89.69
56689;BME280;42565;53.342;-1.534;2023-01-08T00:43:05;96448.68;;;5.25;90.18
56689;BME280;42565;53.342;-1.534;2023-01-08T00:45:32;96441.41;;;5.27;88.82
56689;BME280;42565;53.342;-1.534;2023-01-08T00:48:00;96434.16;;;5.55;88.71
56689;BME280;42565;53.342;-1.534;2023-01-08T00:50:27;96439.52;;;5.95;86.64
56689;BME280;42565;53.342;-1.534;2023-01-08T00:52:53;96446.09;;;5.87;86.95
56689;BME280;42565;53.342;-1.534;2023-01-08T00:55:21;96436.76;;;5.35;88.75
56689;BME280;42565;53.342;-1.534;2023-01-08T00:57:48;96444.73;;;4.93;91.32
56689;BME280;42565;53.342;-1.534;2023-01-08T01:00:15;96442.67;;;5.21;91.51
56689;BME280;42565;53.342;-1.534;2023-01-08T01:02:43;96440.47;;;5.22;90.83
56689;BME280;42565;53.342;-1.534;2023-01-08T01:05:11;96429.82;;;5.36;91.01
56689;BME280;42565;53.342;-1.534;2023-01-08T01:07:38;96429.40;;;6.03;88.80
56689;BME280;42565;53.342;-1.534;2023-01-08T01:10:06;96433.90;;;6.19;87.43
56689;BME280;42565;53.342;-1.534;2023-01-08T01:12:33;96436.51;;;5.86;88.24
56689;BME280;42565;53.342;-1.534;2023-01-08T01:15:02;96436.02;;;5.49;88.76
56689;BME280;42565;53.342;-1.534;2023-01-08T01:17:29;96441.13;;;5.98;87.14
56689;BME280;42565;53.342;-1.534;2023-01-08T01:19:56;96437.19;;;6.23;86.86
56689;BME280;42565;53.342;-1.534;2023-01-08T01:22:23;96447.43;;;4.79;91.81
56689;BME280;42565;53.342;-1.534;2023-01-08T01:24:50;96442.19;;;5.17;91.47
56689;BME280;42565;53.342;-1.534;2023-01-08T01:27:17;96442.71;;;4.93;91.54
56689;BME280;42565;53.342;-1.534;2023-01-08T01:29:44;96437.04;;;5.73;91.24
56689;BME280;42565;53.342;-1.534;2023-01-08T01:32:10;96439.70;;;5.47;90.18
56689;BME280;42565;53.342;-1.534;2023-01-08T01:34:37;96437.88;;;5.71;90.10
56689;BME280;42565;53.342;-1.534;2023-01-08T01:37:04;96436.93;;;4.62;94.05
56689;BME280;42565;53.342;-1.534;2023-01-08T01:39:31;96440.96;;;5.08;93.58
56689;BME280;42565;53.342;-1.534;2023-01-08T01:41:57;96431.10;;;5.21;92.49
56689;BME280;42565;53.342;-1.534;2023-01-08T01:44:35;96422.20;;;6.07;89.90
56689;BME280;42565;53.342;-1.534;2023-01-08T01:47:11;96437.32;;;5.76;89.42
56689;BME280;42565;53.342;-1.534;2023-01-08T01:49:42;96444.17;;;5.96;87.74
56689;BME280;42565;53.342;-1.534;2023-01-08T01:52:12;96434.75;;;5.90;89.41
56689;BME280;42565;53.342;-1.534;2023-01-08T01:54:39;96437.55;;;5.63;90.71
56689;BME280;42565;53.342;-1.534;2023-01-08T01:57:07;96436.85;;;5.38;91.35
56689;BME280;42565;53.342;-1.534;2023-01-08T01:59:34;96423.83;;;5.40;91.90
56689;BME280;42565;53.342;-1.534;2023-01-08T02:02:01;96430.10;;;5.42;90.92
56689;BME280;42565;53.342;-1.534;2023-01-08T02:04:28;96429.78;;;5.07;92.88
56689;BME280;42565;53.342;-1.534;2023-01-08T02:07:00;96429.98;;;5.60;91.01
56689;BME280;42565;53.342;-1.534;2023-01-08T02:09:37;96431.06;;;5.37;91.69
56689;BME280;42565;53.342;-1.534;2023-01-08T02:12:09;96426.58;;;5.38;92.64
56689;BME280;42565;53.342;-1.534;2023-01-08T02:14:44;96423.10;;;5.06;91.82
56689;BME280;42565;53.342;-1.534;2023-01-08T02:17:16;96419.45;;;5.36;90.56
56689;BME280;42565;53.342;-1.534;2023-01-08T02:19:50;96419.49;;;5.58;90.26
56689;BME280;42565;53.342;-1.534;2023-01-08T02:22:28;96420.29;;;5.45;89.66
56689;BME280;42565;53.342;-1.534;2023-01-08T02:25:04;96409.74;;;5.24;89.74
56689;BME280;42565;53.342;-1.534;2023-01-08T02:27:35;96415.57;;;5.58;88.56
56689;BME280;42565;53.342;-1.534;2023-01-08T02:30:05;96420.76;;;5.71;87.21
56689;BME280;42565;53.342;-1.534;2023-01-08T02:32:35;96432.27;;;5.81;86.98
56689;BME280;42565;53.342;-1.534;2023-01-08T02:35:05;96438.36;;;5.32;89.91
56689;BME280;42565;53.342;-1.534;2023-01-08T02:37:33;96445.25;;;4.78;91.97
56689;BME280;42565;53.342;-1.534;2023-01-08T02:40:10;96433.55;;;5.11;92.91
56689;BME280;42565;53.342;-1.534;2023-01-08T02:42:44;96430.62;;;5.30;89.48
56689;BME280;42565;53.342;-1.534;2023-01-08T02:45:22;96435.41;;;6.47;85.78
56689;BME280;42565;53.342;-1.534;2023-01-08T02:47:54;96442.84;;;5.18;91.20
56689;BME280;42565;53.342;-1.534;2023-01-08T02:50:33;96435.08;;;5.23;89.05
56689;BME280;42565;53.342;-1.534;2023-01-08T02:53:07;96428.34;;;5.57;88.25
56689;BME280;42565;53.342;-1.534;2023-01-08T02:55:38;96429.89;;;5.56;88.38
56689;BME280;42565;53.342;-1.534;2023-01-08T02:58:06;96436.31;;;5.09;90.40
56689;BME280;42565;53.342;-1.534;2023-01-08T03:00:34;96428.50;;;5.62;86.73
56689;BME280;42565;53.342;-1.534;2023-01-08T03:03:06;96427.79;;;5.52;89.95
56689;BME280;42565;53.342;-1.534;2023-01-08T03:05:37;96425.98;;;4.98;92.96
56689;BME280;42565;53.342;-1.534;2023-01-08T03:08:07;96431.13;;;5.11;95.55
56689;BME280;42565;53.342;-1.534;2023-01-08T03:10:37;96420.07;;;5.04;94.62
56689;BME280;42565;53.342;-1.534;2023-01-08T03:13:08;96411.59;;;5.39;93.49
56689;BME280;42565;53.342;-1.534;2023-01-08T03:15:44;96416.16;;;5.06;93.72
56689;BME280;42565;53.342;-1.534;2023-01-08T03:18:15;96414.66;;;4.47;94.49
56689;BME280;42565;53.342;-1.534;2023-01-08T03:20:45;96410.50;;;5.29;90.99
56689;BME280;42565;53.342;-1.534;2023-01-08T03:23:14;96407.71;;;5.54;90.10
56689;BME280;42565;53.342;-1.534;2023-01-08T03:25:44;96412.22;;;6.02;86.87
56689;BME280;42565;53.342;-1.534;2023-01-08T03:28:18;96419.65;;;5.87;84.93
56689;BME280;42565;53.342;-1.534;2023-01-08T03:30:48;96413.25;;;5.52;86.65
56689;BME280;42565;53.342;-1.534;2023-01-08T03:33:18;96412.78;;;5.34;87.55
56689;BME280;42565;53.342;-1.534;2023-01-08T03:35:50;96407.37;;;5.78;86.12
56689;BME280;42565;53.342;-1.534;2023-01-08T03:38:22;96407.94;;;5.68;85.91
56689;BME280;42565;53.342;-1.534;2023-01-08T03:40:53;96417.84;;;5.48;86.71
56689;BME280;42565;53.342;-1.534;2023-01-08T03:43:22;96409.16;;;5.69;86.72
56689;BME280;42565;53.342;-1.534;2023-01-08T03:45:54;96407.82;;;5.80;86.71
56689;BME280;42565;53.342;-1.534;2023-01-08T03:48:23;96414.33;;;5.77;85.72
56689;BME280;42565;53.342;-1.534;2023-01-08T03:50:51;96406.64;;;6.30;82.77
56689;BME280;42565;53.342;-1.534;2023-01-08T03:53:18;96403.77;;;6.38;81.31
56689;BME280;42565;53.342;-1.534;2023-01-08T03:55:45;96409.09;;;5.82;84.71
56689;BME280;42565;53.342;-1.534;2023-01-08T03:58:12;96408.54;;;5.86;84.01
56689;BME280;42565;53.342;-1.534;2023-01-08T04:00:40;96408.26;;;6.01;84.17
56689;BME280;42565;53.342;-1.534;2023-01-08T04:03:06;96400.93;;;6.05;82.72
56689;BME280;42565;53.342;-1.534;2023-01-08T04:05:33;96404.26;;;5.75;84.14
56689;BME280;42565;53.342;-1.534;2023-01-08T04:08:01;96408.37;;;6.53;81.15
56689;BME280;42565;53.342;-1.534;2023-01-08T04:10:28;96406.32;;;6.70;80.09
56689;BME280;42565;53.342;-1.534;2023-01-08T04:12:54;96406.12;;;6.67;80.45
56689;BME280;42565;53.342;-1.534;2023-01-08T04:15:21;96403.18;;;6.15;80.78
56689;BME280;42565;53.342;-1.534;2023-01-08T04:17:48;96402.81;;;6.64;80.88
56689;BME280;42565;53.342;-1.534;2023-01-08T04:20:15;96405.15;;;6.17;80.64
56689;BME280;42565;53.342;-1.534;2023-01-08T04:22:43;96410.46;;;6.33;82.23
56689;BME280;42565;53.342;-1.534;2023-01-08T04:25:10;96413.42;;;5.86;81.31
56689;BME280;42565;53.342;-1.534;2023-01-08T04:27:38;96419.97;;;6.15;81.26
56689;BME280;42565;53.342;-1.534;2023-01-08T04:30:05;96412.13;;;5.88;82.18
56689;BME280;42565;53.342;-1.534;2023-01-08T04:32:33;96415.19;;;6.09;82.08
56689;BME280;42565;53.342;-1.534;2023-01-08T04:35:00;96405.39;;;5.66;82.33
56689;BME280;42565;53.342;-1.534;2023-01-08T04:37:26;96411.41;;;5.91;81.63
56689;BME280;42565;53.342;-1.534;2023-01-08T04:39:53;96408.53;;;6.22;79.85
56689;BME280;42565;53.342;-1.534;2023-01-08T04:42:20;96408.11;;;6.45;79.73
56689;BME280;42565;53.342;-1.534;2023-01-08T04:44:47;96413.27;;;5.98;81.09
56689;BME280;42565;53.342;-1.534;2023-01-08T04:47:14;96407.64;;;6.76;78.67
56689;BME280;42565;53.342;-1.534;2023-01-08T04:49:41;96414.07;;;6.32;79.09
56689;BME280;42565;53.342;-1.534;2023-01-08T04:52:09;96411.13;;;5.98;79.69
56689;BME280;42565;53.342;-1.534;2023-01-08T04:54:35;96404.43;;;5.78;80.35
56689;BME280;42565;53.342;-1.534;2023-01-08T04:57:03;96410.53;;;6.35;79.20
56689;BME280;42565;53.342;-1.534;2023-01-08T04:59:30;96421.66;;;6.26;78.11
56689;BME280;42565;53.342;-1.534;2023-01-08T05:01:56;96426.83;;;6.49;77.32
56689;BME280;42565;53.342;-1.534;2023-01-08T05:04:23;96423.96;;;6.06;78.42
56689;BME280;42565;53.342;-1.534;2023-01-08T05:06:50;96413.12;;;5.94;78.17
56689;BME280;42565;53.342;-1.534;2023-01-08T05:09:17;96415.22;;;5.94;78.63
56689;BME280;42565;53.342;-1.534;2023-01-08T05:11:43;96429.11;;;5.64;79.60
56689;BME280;42565;53.342;-1.534;2023-01-08T05:14:10;96430.98;;;5.46;80.68
56689;BME280;42565;53.342;-1.534;2023-01-08T05:16:38;96432.39;;;5.49;82.12
56689;BME280;42565;53.342;-1.534;2023-01-08T05:19:05;96425.36;;;4.80;83.55
56689;BME280;42565;53.342;-1.534;2023-01-08T05:21:32;96423.53;;;5.11;83.14
56689;BME280;42565;53.342;-1.534;2023-01-08T05:23:59;96419.52;;;5.62;80.75
56689;BME280;42565;53.342;-1.534;2023-01-08T05:26:26;96421.31;;;5.24;81.76
56689;BME280;42565;53.342;-1.534;2023-01-08T05:28:53;96420.81;;;6.13;79.29
56689;BME280;42565;53.342;-1.534;2023-01-08T05:31:19;96420.06;;;5.86;78.23
56689;BME280;42565;53.342;-1.534;2023-01-08T05:33:46;96422.82;;;5.73;79.32
56689;BME280;42565;53.342;-1.534;2023-01-08T05:36:13;96419.41;;;5.94;79.77
56689;BME280;42565;53.342;-1.534;2023-01-08T05:38:40;96421.36;;;5.52;80.85
56689;BME280;42565;53.342;-1.534;2023-01-08T05:41:08;96410.54;;;5.50;82.61
56689;BME280;42565;53.342;-1.534;2023-01-08T05:43:36;96419.95;;;4.67;84.18
56689;BME280;42565;53.342;-1.534;2023-01-08T05:46:04;96416.55;;;5.37;82.09
56689;BME280;42565;53.342;-1.534;2023-01-08T05:48:33;96412.83;;;5.23;81.80
56689;BME280;42565;53.342;-1.534;2023-01-08T05:51:01;96408.00;;;5.24;81.68
56689;BME280;42565;53.342;-1.534;2023-01-08T05:53:28;96413.73;;;5.37;81.67
56689;BME280;42565;53.342;-1.534;2023-01-08T05:55:58;96412.68;;;4.78;86.56
56689;BME280;42565;53.342;-1.534;2023-01-08T05:58:26;96418.76;;;4.40;88.37
56689;BME280;42565;53.342;-1.534;2023-01-08T06:00:53;96431.89;;;4.83;88.50
56689;BME280;42565;53.342;-1.534;2023-01-08T06:03:20;96431.31;;;4.66;88.14
56689;BME280;42565;53.342;-1.534;2023-01-08T06:05:48;96440.88;;;5.27;87.02
56689;BME280;42565;53.342;-1.534;2023-01-08T06:08:15;96439.51;;;5.44;85.85
56689;BME280;42565;53.342;-1.534;2023-01-08T06:10:42;96448.32;;;5.50;85.97
56689;BME280;42565;53.342;-1.534;2023-01-08T06:13:09;96444.93;;;5.29;86.40
56689;BME280;42565;53.342;-1.534;2023-01-08T06:15:37;96444.22;;;5.25;86.17
56689;BME280;42565;53.342;-1.534;2023-01-08T06:18:04;96444.47;;;6.04;84.51
56689;BME280;42565;53.342;-1.534;2023-01-08T06:20:31;96438.19;;;6.31;82.13
56689;BME280;42565;53.342;-1.534;2023-01-08T06:22:58;96436.68;;;5.79;84.67
56689;BME280;42565;53.342;-1.534;2023-01-08T06:25:25;96428.59;;;5.35;85.33
56689;BME280;42565;53.342;-1.534;2023-01-08T06:27:53;96425.71;;;5.80;84.33
56689;BME280;42565;53.342;-1.534;2023-01-08T06:30:20;96414.44;;;5.48;84.09
56689;BME280;42565;53.342;-1.534;2023-01-08T06:32:47;96407.77;;;5.16;86.94
56689;BME280;42565;53.342;-1.534;2023-01-08T06:35:14;96409.14;;;5.26;85.83
56689;BME280;42565;53.342;-1.534;2023-01-08T06:37:41;96410.10;;;5.66;85.60
56689;BME280;42565;53.342;-1.534;2023-01-08T06:40:09;96412.89;;;5.54;83.66
56689;BME280;42565;53.342;-1.534;2023-01-08T06:42:36;96420.66;;;5.80;82.18
56689;BME280;42565;53.342;-1.534;2023-01-08T06:45:04;96421.85;;;5.74;81.48
56689;BME280;42565;53.342;-1.534;2023-01-08T06:47:32;96420.85;;;5.93;80.27
56689;BME280;42565;53.342;-1.534;2023-01-08T06:49:59;96419.72;;;5.36;80.67
56689;BME280;42565;53.342;-1.534;2023-01-08T06:52:26;96421.35;;;5.39;81.64
56689;BME280;42565;53.342;-1.534;2023-01-08T06:54:52;96427.37;;;5.89;80.53
56689;BME280;42565;53.342;-1.534;2023-01-08T06:57:19;96419.13;;;5.42;80.89
56689;BME280;42565;53.342;-1.534;2023-01-08T06:59:46;96428.24;;;5.68;79.79
56689;BME280;42565;53.342;-1.534;2023-01-08T07:02:14;96420.94;;;5.49;79.27
56689;BME280;42565;53.342;-1.534;2023-01-08T07:04:42;96423.81;;;5.52;79.25
56689;BME280;42565;53.342;-1.534;2023-01-08T07:07:11;96425.93;;;5.65;77.63
56689;BME280;42565;53.342;-1.534;2023-01-08T07:09:39;96428.49;;;6.12;77.37
56689;BME280;42565;53.342;-1.534;2023-01-08T07:12:11;96419.70;;;6.16;75.28
56689;BME280;42565;53.342;-1.534;2023-01-08T07:14:38;96423.12;;;6.67;75.06
56689;BME280;42565;53.342;-1.534;2023-01-08T07:17:05;96425.11;;;6.32;74.14
56689;BME280;42565;53.342;-1.534;2023-01-08T07:19:33;96426.44;;;6.38;74.98
56689;BME280;42565;53.342;-1.534;2023-01-08T07:22:00;96428.93;;;6.21;74.69
56689;BME280;42565;53.342;-1.534;2023-01-08T07:24:27;96427.99;;;6.03;75.22
56689;BME280;42565;53.342;-1.534;2023-01-08T07:26:55;96437.97;;;6.16;74.20
56689;BME280;42565;53.342;-1.534;2023-01-08T07:29:22;96434.39;;;5.61;75.16
56689;BME280;42565;53.342;-1.534;2023-01-08T07:31:49;96436.25;;;5.46;75.62
56689;BME280;42565;53.342;-1.534;2023-01-08T07:34:15;96439.10;;;5.72;75.04
56689;BME280;42565;53.342;-1.534;2023-01-08T07:36:42;96442.50;;;5.43;77.08
56689;BME280;42565;53.342;-1.534;2023-01-08T07:39:09;96442.30;;;5.14;77.92
56689;BME280;42565;53.342;-1.534;2023-01-08T07:41:36;96439.56;;;5.63;77.68
56689;BME280;42565;53.342;-1.534;2023-01-08T07:44:03;96437.99;;;5.96;77.66
56689;BME280;42565;53.342;-1.534;2023-01-08T07:46:30;96438.62;;;5.55;79.12
56689;BME280;42565;53.342;-1.534;2023-01-08T07:48:58;96436.51;;;6.08;77.29
56689;BME280;42565;53.342;-1.534;2023-01-08T07:51:24;96433.35;;;5.97;76.80
56689;BME280;42565;53.342;-1.534;2023-01-08T07:53:51;96422.97;;;6.50;74.61
56689;BME280;42565;53.342;-1.534;2023-01-08T07:56:18;96413.84;;;6.10;75.23
56689;BME280;42565;53.342;-1.534;2023-01-08T07:58:44;96414.26;;;6.08;76.11
56689;BME280;42565;53.342;-1.534;2023-01-08T08:01:12;96418.95;;;5.98;75.64
56689;BME280;42565;53.342;-1.534;2023-01-08T08:03:40;96418.93;;;5.79;75.57
56689;BME280;42565;53.342;-1.534;2023-01-08T08:06:08;96415.97;;;5.55;76.74
56689;BME280;42565;53.342;-1.534;2023-01-08T08:08:35;96414.26;;;5.96;76.00
56689;BME280;42565;53.342;-1.534;2023-01-08T08:11:03;96419.98;;;6.13;75.11
56689;BME280;42565;53.342;-1.534;2023-01-08T08:13:30;96415.33;;;5.94;74.59
56689;BME280;42565;53.342;-1.534;2023-01-08T08:16:00;96418.34;;;6.40;74.73
56689;BME280;42565;53.342;-1.534;2023-01-08T08:18:27;96417.86;;;6.46;74.24
56689;BME280;42565;53.342;-1.534;2023-01-08T08:20:54;96419.17;;;5.90;75.28
56689;BME280;42565;53.342;-1.534;2023-01-08T08:23:20;96414.29;;;6.62;73.53
56689;BME280;42565;53.342;-1.534;2023-01-08T08:25:47;96416.96;;;6.20;74.82
56689;BME280;42565;53.342;-1.534;2023-01-08T08:28:14;96408.63;;;6.27;74.31
56689;BME280;42565;53.342;-1.534;2023-01-08T08:30:41;96403.49;;;6.35;75.51
56689;BME280;42565;53.342;-1.534;2023-01-08T08:33:08;96398.61;;;5.54;78.03
56689;BME280;42565;53.342;-1.534;2023-01-08T08:35:36;96387.13;;;5.34;79.08
56689;BME280;42565;53.342;-1.534;2023-01-08T08:38:04;96395.34;;;5.21;80.48
56689;BME280;42565;53.342;-1.534;2023-01-08T08:40:31;96396.91;;;5.51;79.39
56689;BME280;42565;53.342;-1.534;2023-01-08T08:43:00;96390.33;;;5.31;80.69
56689;BME280;42565;53.342;-1.534;2023-01-08T08:45:28;96389.87;;;5.18;79.58
56689;BME280;42565;53.342;-1.534;2023-01-08T08:47:55;96377.22;;;5.96;79.31
56689;BME280;42565;53.342;-1.534;2023-01-08T08:50:23;96376.20;;;5.65;78.98
56689;BME280;42565;53.342;-1.534;2023-01-08T08:52:50;96367.84;;;5.35;81.90
56689;BME280;42565;53.342;-1.534;2023-01-08T08:55:17;96379.81;;;5.28;81.99
56689;BME280;42565;53.342;-1.534;2023-01-08T08:57:45;96381.41;;;4.91;83.88
56689;BME280;42565;53.342;-1.534;2023-01-08T09:00:14;96378.55;;;4.43;87.31
56689;BME280;42565;53.342;-1.534;2023-01-08T09:02:41;96372.69;;;4.85;85.69
56689;BME280;42565;53.342;-1.534;2023-01-08T09:05:09;96371.43;;;4.88;85.44
56689;BME280;42565;53.342;-1.534;2023-01-08T09:07:37;96364.83;;;4.64;87.86
56689;BME280;42565;53.342;-1.534;2023-01-08T09:10:05;96371.84;;;4.76;88.10
56689;BME280;42565;53.342;-1.534;2023-01-08T09:12:32;96375.96;;;4.58;89.49
56689;BME280;42565;53.342;-1.534;2023-01-08T09:14:59;96363.98;;;3.77;92.21
56689;BME280;42565;53.342;-1.534;2023-01-08T09:17:26;96358.06;;;3.61;94.06
56689;BME280;42565;53.342;-1.534;2023-01-08T09:19:53;96357.62;;;4.47;90.25
56689;BME280;42565;53.342;-1.534;2023-01-08T09:22:20;96359.46;;;4.27;89.98
56689;BME280;42565;53.342;-1.534;2023-01-08T09:24:47;96343.64;;;4.23;90.55
56689;BME280;42565;53.342;-1.534;2023-01-08T09:27:14;96336.45;;;5.54;86.48
56689;BME280;42565;53.342;-1.534;2023-01-08T09:29:41;96337.55;;;5.36;84.36
56689;BME280;42565;53.342;-1.534;2023-01-08T09:32:08;96326.92;;;4.82;85.69
56689;BME280;42565;53.342;-1.534;2023-01-08T09:34:36;96330.49;;;4.46;88.72
56689;BME280;42565;53.342;-1.534;2023-01-08T09:37:04;96325.91;;;4.87;89.44
56689;BME280;42565;53.342;-1.534;2023-01-08T09:39:31;96339.42;;;5.15;86.94
56689;BME280;42565;53.342;-1.534;2023-01-08T09:42:01;96328.14;;;4.51;88.99
56689;BME280;42565;53.342;-1.534;2023-01-08T09:44:32;96323.94;;;3.97;90.07
56689;BME280;42565;53.342;-1.534;2023-01-08T09:47:02;96312.44;;;4.21;90.97
56689;BME280;42565;53.342;-1.534;2023-01-08T09:49:36;96318.01;;;4.20;90.85
56689;BME280;42565;53.342;-1.534;2023-01-08T09:52:07;96314.93;;;4.67;88.62
56689;BME280;42565;53.342;-1.534;2023-01-08T09:54:35;96327.61;;;3.98;92.08
56689;BME280;42565;53.342;-1.534;2023-01-08T09:57:03;96328.53;;;3.80;94.08
56689;BME280;42565;53.342;-1.534;2023-01-08T09:59:30;96313.18;;;4.16;91.65
56689;BME280;42565;53.342;-1.534;2023-01-08T10:01:57;96310.81;;;4.78;89.38
56689;BME280;42565;53.342;-1.534;2023-01-08T10:04:27;96313.05;;;4.07;92.03
56689;BME280;42565;53.342;-1.534;2023-01-08T10:06:59;96312.84;;;4.22;91.44
56689;BME280;42565;53.342;-1.534;2023-01-08T10:09:29;96306.75;;;4.16;89.93
56689;BME280;42565;53.342;-1.534;2023-01-08T10:11:59;96309.98;;;4.17;91.32
56689;BME280;42565;53.342;-1.534;2023-01-08T10:14:29;96301.22;;;4.33;91.27
56689;BME280;42565;53.342;-1.534;2023-01-08T10:16:59;96307.12;;;3.78;93.23
56689;BME280;42565;53.342;-1.534;2023-01-08T10:19:27;96294.80;;;4.14;92.50
56689;BME280;42565;53.342;-1.534;2023-01-08T10:21:55;96293.99;;;4.57;90.42
56689;BME280;42565;53.342;-1.534;2023-01-08T10:24:32;96289.15;;;4.03;90.88
56689;BME280;42565;53.342;-1.534;2023-01-08T10:27:10;96275.28;;;3.71;94.43
56689;BME280;42565;53.342;-1.534;2023-01-08T10:29:38;96281.90;;;4.13;93.42
56689;BME280;42565;53.342;-1.534;2023-01-08T10:32:09;96273.12;;;4.03;94.68
56689;BME280;42565;53.342;-1.534;2023-01-08T10:34:42;96279.12;;;4.19;94.52
56689;BME280;42565;53.342;-1.534;2023-01-08T10:37:17;96266.24;;;4.24;93.50
56689;BME280;42565;53.342;-1.534;2023-01-08T10:39:48;96266.57;;;4.25;93.02
56689;BME280;42565;53.342;-1.534;2023-01-08T10:42:17;96270.08;;;4.31;92.68
56689;BME280;42565;53.342;-1.534;2023-01-08T10:44:52;96267.85;;;4.13;92.12
56689;BME280;42565;53.342;-1.534;2023-01-08T10:47:21;96259.18;;;4.37;92.29
56689;BME280;42565;53.342;-1.534;2023-01-08T10:49:49;96250.49;;;4.24;92.06
56689;BME280;42565;53.342;-1.534;2023-01-08T10:52:23;96238.72;;;4.52;90.77
56689;BME280;42565;53.342;-1.534;2023-01-08T10:54:51;96235.19;;;4.95;90.37
56689;BME280;42565;53.342;-1.534;2023-01-08T10:57:21;96238.45;;;4.98;89.26
56689;BME280;42565;53.342;-1.534;2023-01-08T10:59:48;96242.96;;;5.04;88.67
56689;BME280;42565;53.342;-1.534;2023-01-08T11:02:21;96235.08;;;5.34;85.87
56689;BME280;42565;53.342;-1.534;2023-01-08T11:04:52;96237.70;;;4.98;88.47
56689;BME280;42565;53.342;-1.534;2023-01-08T11:07:21;96232.56;;;4.56;89.85
56689;BME280;42565;53.342;-1.534;2023-01-08T11:09:50;96224.56;;;4.72;91.09
56689;BME280;42565;53.342;-1.534;2023-01-08T11:12:30;96215.07;;;4.03;93.21
56689;BME280;42565;53.342;-1.534;2023-01-08T11:14:58;96205.32;;;4.45;92.24
56689;BME280;42565;53.342;-1.534;2023-01-08T11:17:26;96215.62;;;4.40;91.41
56689;BME280;42565;53.342;-1.534;2023-01-08T11:19:53;96201.61;;;4.27;92.45
56689;BME280;42565;53.342;-1.534;2023-01-08T11:22:23;96200.59;;;4.18;92.20
56689;BME280;42565;53.342;-1.534;2023-01-08T11:24:51;96192.25;;;4.64;92.17
56689;BME280;42565;53.342;-1.534;2023-01-08T11:27:24;96174.24;;;4.16;92.29
56689;BME280;42565;53.342;-1.534;2023-01-08T11:29:58;96170.78;;;3.92;94.62
56689;BME280;42565;53.342;-1.534;2023-01-08T11:32:37;96165.54;;;4.03;94.46
56689;BME280;42565;53.342;-1.534;2023-01-08T11:35:12;96152.59;;;4.41;92.61
56689;BME280;42565;53.342;-1.534;2023-01-08T11:37:44;96152.31;;;4.50;91.37
56689;BME280;42565;53.342;-1.534;2023-01-08T11:40:14;96140.91;;;4.06;92.49
56689;BME280;42565;53.342;-1.534;2023-01-08T11:42:54;96137.68;;;4.37;92.32
56689;BME280;42565;53.342;-1.534;2023-01-08T11:45:33;96134.20;;;4.15;93.51
56689;BME280;42565;53.342;-1.534;2023-01-08T11:48:19;96120.74;;;3.92;96.04
56689;BME280;42565;53.342;-1.534;2023-01-08T11:50:58;96126.49;;;4.04;96.27
56689;BME280;42565;53.342;-1.534;2023-01-08T11:53:34;96100.03;;;4.10;99.07
56689;BME280;42565;53.342;-1.534;2023-01-08T11:56:14;96104.55;;;3.90;98.17
56689;BME280;42565;53.342;-1.534;2023-01-08T11:58:53;96089.75;;;4.24;99.57
56689;BME280;42565;53.342;-1.534;2023-01-08T12:01:36;96075.71;;;4.37;97.14
56689;BME280;42565;53.342;-1.534;2023-01-08T12:04:22;96082.45;;;4.31;97.84
56689;BME280;42565;53.342;-1.534;2023-01-08T12:06:58;96079.47;;;4.19;98.38
56689;BME280;42565;53.342;-1.534;2023-01-08T12:09:37;96069.09;;;4.01;100.00
56689;BME280;42565;53.342;-1.534;2023-01-08T12:12:12;96078.43;;;3.82;100.00
56689;BME280;42565;53.342;-1.534;2023-01-08T12:14:50;96059.54;;;4.26;100.00
56689;BME280;42565;53.342;-1.534;2023-01-08T12:17:52;96049.75;;;3.92;100.00
56689;BME280;42565;53.342;-1.534;2023-01-08T12:20:30;96046.35;;;3.80;100.00
56689;BME280;42565;53.342;-1.534;2023-01-08T12:23:04;96034.06;;;3.51;100.00
56689;BME280;42565;53.342;-1.534;2023-01-08T12:25:52;96038.96;;;3.94;100.00
56689;BME280;42565;53.342;-1.534;2023-01-08T12:28:46;96021.66;;;4.06;100.00
56689;BME280;42565;53.342;-1.534;2023-01-08T12:31:27;96018.02;;;4.31;100.00
56689;BME280;42565;53.342;-1.534;2023-01-08T12:34:01;96020.78;;;4.41;100.00
56689;BME280;42565;53.342;-1.534;2023-01-08T12:36:35;96006.12;;;3.87;100.00
56689;BME280;42565;53.342;-1.534;2023-01-08T12:39:09;96018.15;;;3.68;100.00
56689;BME280;42565;53.342;-1.534;2023-01-08T12:41:39;95999.48;;;3.67;100.00
56689;BME280;42565;53.342;-1.534;2023-01-08T12:44:10;96004.44;;;4.11;100.00
56689;BME280;42565;53.342;-1.534;2023-01-08T12:46:41;96012.73;;;3.64;100.00
56689;BME280;42565;53.342;-1.534;2023-01-08T12:49:11;95994.57;;;4.32;100.00
56689;BME280;42565;53.342;-1.534;2023-01-08T12:51:48;95996.75;;;4.41;100.00
56689;BME280;42565;53.342;-1.534;2023-01-08T12:54:22;95987.26;;;4.41;100.00
56689;BME280;42565;53.342;-1.534;2023-01-08T12:56:57;95984.93;;;4.02;100.00
56689;BME280;42565;53.342;-1.534;2023-01-08T12:59:35;95982.30;;;4.14;100.00
56689;BME280;42565;53.342;-1.534;2023-01-08T13:02:14;95972.71;;;4.29;98.28
56689;BME280;42565;53.342;-1.534;2023-01-08T13:04:43;95975.95;;;4.91;94.58
56689;BME280;42565;53.342;-1.534;2023-01-08T13:07:15;95975.95;;;5.18;93.82
56689;BME280;42565;53.342;-1.534;2023-01-08T13:09:44;95976.42;;;4.87;94.08
56689;BME280;42565;53.342;-1.534;2023-01-08T13:12:13;95966.81;;;4.74;95.77